sensor_id;sensor_type;location;lat;lon;timestamp;temperature;humidity
29731;DHT22;16639;51.488;0.152;2024-03-02T00:01:39;5.20;99.90
29731;DHT22;16639;51.488;0.152;2024-03-02T00:04:07;5.00;99.90
29731;DHT22;16639;51.488;0.152;2024-03-02T00:06:35;5.00;99.90
29731;DHT22;16639;51.488;0.152;2024-03-02T00:09:03;5.00;99.90
29731;DHT22;16639;51.488;0.152;2024-03-02T00:11:30;5.10;99.90
29731;DHT22;16639;51.488;0.152;2024-03-02T00:14:01;5.10;99.90
29731;DHT22;16639;51.488;0.152;2024-03-02T00:16:30;4.70;99.90
29731;DHT22;16639;51.488;0.152;2024-03-02T00:19:03;5.10;99.90
29731;DHT22;16639;51.488;0.152;2024-03-02T00:21:31;5.10;99.90
29731;DHT22;16639;51.488;0.152;2024-03-02T00:23:59;3.90;99.90
29731;DHT22;16639;51.488;0.152;2024-03-02T00:26:29;5.10;99.90
29731;DHT22;16639;51.488;0.152;2024-03-02T00:28:57;5.10;99.90
29731;DHT22;16639;51.488;0.152;2024-03-02T00:31:25;5.20;99.90
29731;DHT22;16639;51.488;0.152;2024-03-02T00:33:54;5.10;99.90
29731;DHT22;16639;51.488;0.152;2024-03-02T00:36:24;5.10;99.90
29731;DHT22;16639;51.488;0.152;2024-03-02T00:38:53;5.10;99.90
29731;DHT22;16639;51.488;0.152;2024-03-02T00:41:24;5.60;99.90
29731;DHT22;16639;51.488;0.152;2024-03-02T00:46:41;5.10;99.90
29731;DHT22;16639;51.488;0.152;2024-03-02T00:49:22;5.00;99.90
29731;DHT22;16639;51.488;0.152;2024-03-02T00:51:52;5.00;99.90
29731;DHT22;16639;51.488;0.152;2024-03-02T00:54:27;4.90;99.90
29731;DHT22;16639;51.488;0.152;2024-03-02T00:56:56;4.90;99.90
29731;DHT22;16639;51.488;0.152;2024-03-02T00:59:24;4.80;99.90
29731;DHT22;16639;51.488;0.152;2024-03-02T01:01:51;4.90;99.90
29731;DHT22;16639;51.488;0.152;2024-03-02T01:04:19;4.80;99.90
29731;DHT22;16639;51.488;0.152;2024-03-02T01:06:47;4.80;99.90
29731;DHT22;16639;51.488;0.152;2024-03-02T01:09:15;4.80;99.90
29731;DHT22;16639;51.488;0.152;2024-03-02T01:11:43;4.20;99.90
29731;DHT22;16639;51.488;0.152;2024-03-02T01:14:11;4.70;99.90
29731;DHT22;16639;51.488;0.152;2024-03-02T01:16:38;4.80;99.90
29731;DHT22;16639;51.488;0.152;2024-03-02T01:19:06;4.70;99.90
29731;DHT22;16639;51.488;0.152;2024-03-02T01:21:34;4.70;99.90
29731;DHT22;16639;51.488;0.152;2024-03-02T01:24:01;4.70;99.90
29731;DHT22;16639;51.488;0.152;2024-03-02T01:26:29;4.70;99.90
29731;DHT22;16639;51.488;0.152;2024-03-02T01:28:56;4.80;99.90
29731;DHT22;16639;51.488;0.152;2024-03-02T01:31:24;4.80;99.90
29731;DHT22;16639;51.488;0.152;2024-03-02T01:33:51;4.80;99.90
29731;DHT22;16639;51.488;0.152;2024-03-02T01:36:19;4.90;99.90
29731;DHT22;16639;51.488;0.152;2024-03-02T01:38:46;4.90;99.90
29731;DHT22;16639;51.488;0.152;2024-03-02T01:41:14;4.90;99.90
29731;DHT22;16639;51.488;0.152;2024-03-02T01:43:41;5.00;99.90
29731;DHT22;16639;51.488;0.152;2024-03-02T01:46:08;5.00;99.90
29731;DHT22;16639;51.488;0.152;2024-03-02T01:48:36;5.00;99.90
29731;DHT22;16639;51.488;0.152;2024-03-02T01:51:04;5.00;99.90
29731;DHT22;16639;51.488;0.152;2024-03-02T01:53:34;5.00;99.90
29731;DHT22;16639;51.488;0.152;2024-03-02T01:56:02;5.00;99.90
29731;DHT22;16639;51.488;0.152;2024-03-02T01:58:30;5.00;99.90
29731;DHT22;16639;51.488;0.152;2024-03-02T02:00:57;5.00;99.90
29731;DHT22;16639;51.488;0.152;2024-03-02T02:03:25;5.00;99.90
29731;DHT22;16639;51.488;0.152;2024-03-02T02:05:52;5.10;99.90
29731;DHT22;16639;51.488;0.152;2024-03-02T02:08:20;5.10;99.90
29731;DHT22;16639;51.488;0.152;2024-03-02T02:10:47;5.10;99.90
29731;DHT22;16639;51.488;0.152;2024-03-02T02:13:15;5.20;99.90
29731;DHT22;16639;51.488;0.152;2024-03-02T02:15:42;5.30;99.90
29731;DHT22;16639;51.488;0.152;2024-03-02T02:18:10;5.30;99.90
29731;DHT22;16639;51.488;0.152;2024-03-02T02:20:37;5.30;99.90
29731;DHT22;16639;51.488;0.152;2024-03-02T02:23:05;5.40;99.90
29731;DHT22;16639;51.488;0.152;2024-03-02T02:25:35;5.00;99.90
29731;DHT22;16639;51.488;0.152;2024-03-02T02:28:04;5.40;99.90
29731;DHT22;16639;51.488;0.152;2024-03-02T02:30:32;5.40;99.90
29731;DHT22;16639;51.488;0.152;2024-03-02T02:32:59;5.40;99.90
29731;DHT22;16639;51.488;0.152;2024-03-02T02:35:27;5.50;99.90
29731;DHT22;16639;51.488;0.152;2024-03-02T02:37:55;5.50;99.90
29731;DHT22;16639;51.488;0.152;2024-03-02T02:40:24;5.50;99.90
29731;DHT22;16639;51.488;0.152;2024-03-02T02:42:51;6.60;99.90
29731;DHT22;16639;51.488;0.152;2024-03-02T02:45:20;5.50;99.90
29731;DHT22;16639;51.488;0.152;2024-03-02T02:47:49;5.10;99.90
29731;DHT22;16639;51.488;0.152;2024-03-02T02:50:17;5.60;99.90
29731;DHT22;16639;51.488;0.152;2024-03-02T02:52:44;5.60;99.90
29731;DHT22;16639;51.488;0.152;2024-03-02T02:55:13;5.60;99.90
29731;DHT22;16639;51.488;0.152;2024-03-02T02:57:43;5.60;99.90
29731;DHT22;16639;51.488;0.152;2024-03-02T03:00:13;5.50;99.90
29731;DHT22;16639;51.488;0.152;2024-03-02T03:02:47;5.10;99.90
29731;DHT22;16639;51.488;0.152;2024-03-02T03:05:17;5.60;99.90
29731;DHT22;16639;51.488;0.152;2024-03-02T03:07:45;5.50;99.90
29731;DHT22;16639;51.488;0.152;2024-03-02T03:10:13;5.60;99.90
29731;DHT22;16639;51.488;0.152;2024-03-02T03:12:42;5.50;99.90
29731;DHT22;16639;51.488;0.152;2024-03-02T03:15:11;5.60;99.90
29731;DHT22;16639;51.488;0.152;2024-03-02T03:17:40;5.90;99.90
29731;DHT22;16639;51.488;0.152;2024-03-02T03:20:08;5.60;99.90
29731;DHT22;16639;51.488;0.152;2024-03-02T03:22:39;5.70;99.90
29731;DHT22;16639;51.488;0.152;2024-03-02T03:25:07;5.60;99.90
29731;DHT22;16639;51.488;0.152;2024-03-02T03:27:37;5.60;99.90
29731;DHT22;16639;51.488;0.152;2024-03-02T03:30:05;5.70;99.90
29731;DHT22;16639;51.488;0.152;2024-03-02T03:32:34;5.10;99.90
29731;DHT22;16639;51.488;0.152;2024-03-02T03:35:02;5.80;99.90
29731;DHT22;16639;51.488;0.152;2024-03-02T03:37:30;5.80;99.90
29731;DHT22;16639;51.488;0.152;2024-03-02T03:40:02;5.80;99.90
29731;DHT22;16639;51.488;0.152;2024-03-02T03:42:30;5.80;99.90
29731;DHT22;16639;51.488;0.152;2024-03-02T03:44:57;5.80;99.90
29731;DHT22;16639;51.488;0.152;2024-03-02T03:47:25;5.80;99.90
29731;DHT22;16639;51.488;0.152;2024-03-02T03:49:52;5.80;99.90
29731;DHT22;16639;51.488;0.152;2024-03-02T03:52:20;5.80;99.90
29731;DHT22;16639;51.488;0.152;2024-03-02T03:54:48;5.80;99.90
29731;DHT22;16639;51.488;0.152;2024-03-02T03:57:16;5.80;99.90
29731;DHT22;16639;51.488;0.152;2024-03-02T03:59:44;5.80;99.90
29731;DHT22;16639;51.488;0.152;2024-03-02T04:02:11;6.30;99.90
29731;DHT22;16639;51.488;0.152;2024-03-02T04:04:40;5.90;99.90
29731;DHT22;16639;51.488;0.152;2024-03-02T04:07:07;5.90;99.90
29731;DHT22;16639;51.488;0.152;2024-03-02T04:09:34;5.90;99.90
29731;DHT22;16639;51.488;0.152;2024-03-02T04:12:02;5.90;99.90
29731;DHT22;16639;51.488;0.152;2024-03-02T04:14:29;5.90;99.90
29731;DHT22;16639;51.488;0.152;2024-03-02T04:16:57;5.90;99.90
29731;DHT22;16639;51.488;0.152;2024-03-02T04:19:24;5.90;99.90
29731;DHT22;16639;51.488;0.152;2024-03-02T04:21:51;6.00;99.90
29731;DHT22;16639;51.488;0.152;2024-03-02T04:24:19;5.90;99.90
29731;DHT22;16639;51.488;0.152;2024-03-02T04:26:46;5.80;99.90
29731;DHT22;16639;51.488;0.152;2024-03-02T04:29:14;6.00;99.90
29731;DHT22;16639;51.488;0.152;2024-03-02T04:31:41;6.20;99.90
29731;DHT22;16639;51.488;0.152;2024-03-02T04:34:08;6.10;99.90
29731;DHT22;16639;51.488;0.152;2024-03-02T04:36:36;6.00;99.90
29731;DHT22;16639;51.488;0.152;2024-03-02T04:39:04;6.00;99.90
29731;DHT22;16639;51.488;0.152;2024-03-02T04:41:31;6.00;99.90
29731;DHT22;16639;51.488;0.152;2024-03-02T04:43:59;6.00;99.90
29731;DHT22;16639;51.488;0.152;2024-03-02T04:46:26;6.10;99.90
29731;DHT22;16639;51.488;0.152;2024-03-02T04:48:53;6.00;99.90
29731;DHT22;16639;51.488;0.152;2024-03-02T04:51:24;6.20;99.90
29731;DHT22;16639;51.488;0.152;2024-03-02T04:53:51;6.20;99.90
29731;DHT22;16639;51.488;0.152;2024-03-02T04:56:19;6.20;99.90
29731;DHT22;16639;51.488;0.152;2024-03-02T04:58:58;6.20;99.90
29731;DHT22;16639;51.488;0.152;2024-03-02T05:01:26;6.80;99.90
29731;DHT22;16639;51.488;0.152;2024-03-02T05:03:53;6.20;99.90
29731;DHT22;16639;51.488;0.152;2024-03-02T05:06:21;6.20;99.90
29731;DHT22;16639;51.488;0.152;2024-03-02T05:08:51;6.10;99.90
29731;DHT22;16639;51.488;0.152;2024-03-02T05:11:18;6.10;99.90
29731;DHT22;16639;51.488;0.152;2024-03-02T05:14:07;6.20;99.90
29731;DHT22;16639;51.488;0.152;2024-03-02T05:16:35;6.20;99.90
29731;DHT22;16639;51.488;0.152;2024-03-02T05:19:05;6.20;99.90
29731;DHT22;16639;51.488;0.152;2024-03-02T05:21:34;6.20;99.90
29731;DHT22;16639;51.488;0.152;2024-03-02T05:24:02;6.20;99.90
29731;DHT22;16639;51.488;0.152;2024-03-02T05:26:29;6.20;99.90
29731;DHT22;16639;51.488;0.152;2024-03-02T05:28:57;6.40;99.90
29731;DHT22;16639;51.488;0.152;2024-03-02T05:31:24;6.20;99.90
29731;DHT22;16639;51.488;0.152;2024-03-02T05:33:51;6.20;99.90
29731;DHT22;16639;51.488;0.152;2024-03-02T05:36:24;6.20;99.90
29731;DHT22;16639;51.488;0.152;2024-03-02T05:38:53;6.20;99.90
29731;DHT22;16639;51.488;0.152;2024-03-02T05:41:21;6.20;99.90
29731;DHT22;16639;51.488;0.152;2024-03-02T05:43:48;6.20;99.90
29731;DHT22;16639;51.488;0.152;2024-03-02T05:46:16;5.80;99.90
29731;DHT22;16639;51.488;0.152;2024-03-02T05:48:43;6.20;99.90
29731;DHT22;16639;51.488;0.152;2024-03-02T05:51:11;6.10;99.90
29731;DHT22;16639;51.488;0.152;2024-03-02T05:53:38;6.70;99.90
29731;DHT22;16639;51.488;0.152;2024-03-02T05:56:06;6.10;99.90
29731;DHT22;16639;51.488;0.152;2024-03-02T05:58:34;6.90;99.90
29731;DHT22;16639;51.488;0.152;2024-03-02T06:01:01;6.10;99.90
29731;DHT22;16639;51.488;0.152;2024-03-02T06:03:30;5.40;99.90
29731;DHT22;16639;51.488;0.152;2024-03-02T06:05:58;6.00;99.90
29731;DHT22;16639;51.488;0.152;2024-03-02T06:08:25;6.10;99.90
29731;DHT22;16639;51.488;0.152;2024-03-02T06:10:52;6.00;99.90
29731;DHT22;16639;51.488;0.152;2024-03-02T06:13:20;6.10;99.90
29731;DHT22;16639;51.488;0.152;2024-03-02T06:15:47;6.10;99.90
29731;DHT22;16639;51.488;0.152;2024-03-02T06:18:15;6.10;99.90
29731;DHT22;16639;51.488;0.152;2024-03-02T06:20:42;6.30;99.90
29731;DHT22;16639;51.488;0.152;2024-03-02T06:23:10;6.10;99.90
29731;DHT22;16639;51.488;0.152;2024-03-02T06:25:38;6.10;99.90
29731;DHT22;16639;51.488;0.152;2024-03-02T06:28:05;6.10;99.90
29731;DHT22;16639;51.488;0.152;2024-03-02T06:30:32;6.10;99.90
29731;DHT22;16639;51.488;0.152;2024-03-02T06:33:00;6.10;99.90
29731;DHT22;16639;51.488;0.152;2024-03-02T06:35:28;6.10;99.90
29731;DHT22;16639;51.488;0.152;2024-03-02T06:37:55;5.80;99.90
29731;DHT22;16639;51.488;0.152;2024-03-02T06:40:22;6.50;99.90
29731;DHT22;16639;51.488;0.152;2024-03-02T06:42:50;5.50;99.90
29731;DHT22;16639;51.488;0.152;2024-03-02T06:45:18;6.20;99.90
29731;DHT22;16639;51.488;0.152;2024-03-02T06:47:45;6.20;99.90
29731;DHT22;16639;51.488;0.152;2024-03-02T06:50:13;6.20;99.90
29731;DHT22;16639;51.488;0.152;2024-03-02T06:52:40;6.20;99.90
29731;DHT22;16639;51.488;0.152;2024-03-02T06:55:08;6.30;99.90
29731;DHT22;16639;51.488;0.152;2024-03-02T06:57:36;6.30;99.90
29731;DHT22;16639;51.488;0.152;2024-03-02T07:00:04;6.20;99.90
29731;DHT22;16639;51.488;0.152;2024-03-02T07:02:32;6.20;99.90
29731;DHT22;16639;51.488;0.152;2024-03-02T07:04:59;6.20;99.90
29731;DHT22;16639;51.488;0.152;2024-03-02T07:07:27;6.20;99.90
29731;DHT22;16639;51.488;0.152;2024-03-02T07:09:54;5.80;99.90
29731;DHT22;16639;51.488;0.152;2024-03-02T07:12:22;6.20;99.90
29731;DHT22;16639;51.488;0.152;2024-03-02T07:14:49;6.20;99.90
29731;DHT22;16639;51.488;0.152;2024-03-02T07:17:32;6.20;99.90
29731;DHT22;16639;51.488;0.152;2024-03-02T07:19:59;6.20;99.90
29731;DHT22;16639;51.488;0.152;2024-03-02T07:22:27;6.20;99.90
29731;DHT22;16639;51.488;0.152;2024-03-02T07:24:54;6.10;99.90
29731;DHT22;16639;51.488;0.152;2024-03-02T07:27:22;7.10;99.90
29731;DHT22;16639;51.488;0.152;2024-03-02T07:29:49;6.20;99.90
29731;DHT22;16639;51.488;0.152;2024-03-02T07:32:17;6.20;99.90
29731;DHT22;16639;51.488;0.152;2024-03-02T07:34:44;7.10;99.90
29731;DHT22;16639;51.488;0.152;2024-03-02T07:37:12;6.20;99.90
29731;DHT22;16639;51.488;0.152;2024-03-02T07:39:39;6.20;99.90
29731;DHT22;16639;51.488;0.152;2024-03-02T07:42:08;6.10;99.90
29731;DHT22;16639;51.488;0.152;2024-03-02T07:44:36;6.10;99.90
29731;DHT22;16639;51.488;0.152;2024-03-02T07:47:06;6.10;99.90
29731;DHT22;16639;51.488;0.152;2024-03-02T07:49:34;6.20;99.90
29731;DHT22;16639;51.488;0.152;2024-03-02T07:52:02;6.10;99.90
29731;DHT22;16639;51.488;0.152;2024-03-02T07:54:31;6.10;99.90
29731;DHT22;16639;51.488;0.152;2024-03-02T07:56:58;6.20;99.90
29731;DHT22;16639;51.488;0.152;2024-03-02T07:59:28;7.20;99.90
29731;DHT22;16639;51.488;0.152;2024-03-02T08:01:55;6.20;99.90
29731;DHT22;16639;51.488;0.152;2024-03-02T08:04:23;6.20;99.90
29731;DHT22;16639;51.488;0.152;2024-03-02T08:06:50;6.30;99.90
29731;DHT22;16639;51.488;0.152;2024-03-02T08:09:18;6.40;99.90
29731;DHT22;16639;51.488;0.152;2024-03-02T08:11:45;6.40;99.90
29731;DHT22;16639;51.488;0.152;2024-03-02T08:14:13;6.40;99.90
29731;DHT22;16639;51.488;0.152;2024-03-02T08:16:41;6.40;99.90
29731;DHT22;16639;51.488;0.152;2024-03-02T08:19:08;7.60;99.90
29731;DHT22;16639;51.488;0.152;2024-03-02T08:21:37;6.50;99.90
29731;DHT22;16639;51.488;0.152;2024-03-02T08:24:04;6.60;99.90
29731;DHT22;16639;51.488;0.152;2024-03-02T08:26:32;6.50;99.90
29731;DHT22;16639;51.488;0.152;2024-03-02T08:28:59;6.70;99.90
29731;DHT22;16639;51.488;0.152;2024-03-02T08:31:29;6.70;99.90
29731;DHT22;16639;51.488;0.152;2024-03-02T08:33:56;6.70;99.90
29731;DHT22;16639;51.488;0.152;2024-03-02T08:36:29;6.80;99.90
29731;DHT22;16639;51.488;0.152;2024-03-02T08:38:57;6.70;99.90
29731;DHT22;16639;51.488;0.152;2024-03-02T08:41:24;7.50;99.90
29731;DHT22;16639;51.488;0.152;2024-03-02T08:43:52;6.80;99.90
29731;DHT22;16639;51.488;0.152;2024-03-02T08:46:19;5.70;99.90
29731;DHT22;16639;51.488;0.152;2024-03-02T08:48:47;6.80;99.90
29731;DHT22;16639;51.488;0.152;2024-03-02T08:51:14;6.80;99.90
29731;DHT22;16639;51.488;0.152;2024-03-02T08:53:42;6.80;99.90
29731;DHT22;16639;51.488;0.152;2024-03-02T08:56:11;6.90;99.90
29731;DHT22;16639;51.488;0.152;2024-03-02T08:58:39;6.30;99.90
29731;DHT22;16639;51.488;0.152;2024-03-02T09:01:06;6.90;99.90
29731;DHT22;16639;51.488;0.152;2024-03-02T09:03:35;6.90;99.90
29731;DHT22;16639;51.488;0.152;2024-03-02T09:06:04;7.00;99.90
29731;DHT22;16639;51.488;0.152;2024-03-02T09:08:31;7.10;99.90
29731;DHT22;16639;51.488;0.152;2024-03-02T09:10:59;7.10;99.90
29731;DHT22;16639;51.488;0.152;2024-03-02T09:13:26;7.20;99.90
29731;DHT22;16639;51.488;0.152;2024-03-02T09:15:54;7.20;99.90
29731;DHT22;16639;51.488;0.152;2024-03-02T09:18:21;7.20;99.90
29731;DHT22;16639;51.488;0.152;2024-03-02T09:20:49;7.60;99.90
29731;DHT22;16639;51.488;0.152;2024-03-02T09:23:17;7.20;99.90
29731;DHT22;16639;51.488;0.152;2024-03-02T09:25:45;7.30;99.90
29731;DHT22;16639;51.488;0.152;2024-03-02T09:28:13;7.30;99.90
29731;DHT22;16639;51.488;0.152;2024-03-02T09:30:42;7.30;99.90
29731;DHT22;16639;51.488;0.152;2024-03-02T09:33:10;7.30;99.90
29731;DHT22;16639;51.488;0.152;2024-03-02T09:35:40;7.30;99.90
29731;DHT22;16639;51.488;0.152;2024-03-02T09:38:07;7.40;99.90
29731;DHT22;16639;51.488;0.152;2024-03-02T09:40:36;7.40;99.90
29731;DHT22;16639;51.488;0.152;2024-03-02T09:43:03;7.40;99.90
29731;DHT22;16639;51.488;0.152;2024-03-02T09:45:31;7.40;99.90
29731;DHT22;16639;51.488;0.152;2024-03-02T09:47:59;7.40;99.90
29731;DHT22;16639;51.488;0.152;2024-03-02T09:50:27;7.50;99.90
29731;DHT22;16639;51.488;0.152;2024-03-02T09:52:55;7.50;99.90
29731;DHT22;16639;51.488;0.152;2024-03-02T09:55:23;7.60;99.90
29731;DHT22;16639;51.488;0.152;2024-03-02T09:57:50;7.50;99.90
29731;DHT22;16639;51.488;0.152;2024-03-02T10:00:18;7.60;99.90
29731;DHT22;16639;51.488;0.152;2024-03-02T10:02:46;7.60;99.90
29731;DHT22;16639;51.488;0.152;2024-03-02T10:05:26;8.40;99.90
29731;DHT22;16639;51.488;0.152;2024-03-02T10:08:01;7.60;99.90
29731;DHT22;16639;51.488;0.152;2024-03-02T10:10:39;7.60;99.90
29731;DHT22;16639;51.488;0.152;2024-03-02T10:13:11;7.60;99.90
29731;DHT22;16639;51.488;0.152;2024-03-02T10:15:40;7.60;99.90
29731;DHT22;16639;51.488;0.152;2024-03-02T10:18:09;7.60;99.90
29731;DHT22;16639;51.488;0.152;2024-03-02T10:20:40;7.50;99.90
29731;DHT22;16639;51.488;0.152;2024-03-02T10:23:15;7.50;99.90
29731;DHT22;16639;51.488;0.152;2024-03-02T10:25:44;7.40;99.90
29731;DHT22;16639;51.488;0.152;2024-03-02T10:28:24;7.40;99.90
29731;DHT22;16639;51.488;0.152;2024-03-02T10:30:52;7.30;99.90
29731;DHT22;16639;51.488;0.152;2024-03-02T10:33:20;7.30;99.90
29731;DHT22;16639;51.488;0.152;2024-03-02T10:35:50;7.20;99.90
29731;DHT22;16639;51.488;0.152;2024-03-02T10:38:17;7.20;99.90
29731;DHT22;16639;51.488;0.152;2024-03-02T10:40:48;7.20;99.90
29731;DHT22;16639;51.488;0.152;2024-03-02T10:43:19;7.10;99.90
29731;DHT22;16639;51.488;0.152;2024-03-02T10:45:49;7.10;99.90
29731;DHT22;16639;51.488;0.152;2024-03-02T10:48:19;7.10;99.90
29731;DHT22;16639;51.488;0.152;2024-03-02T10:50:46;7.10;99.90
29731;DHT22;16639;51.488;0.152;2024-03-02T10:53:14;7.00;99.90
29731;DHT22;16639;51.488;0.152;2024-03-02T10:55:41;7.20;99.90
29731;DHT22;16639;51.488;0.152;2024-03-02T10:58:12;7.70;99.90
29731;DHT22;16639;51.488;0.152;2024-03-02T11:00:42;7.30;99.90
29731;DHT22;16639;51.488;0.152;2024-03-02T11:03:14;7.30;99.90
29731;DHT22;16639;51.488;0.152;2024-03-02T11:05:44;7.60;99.90
29731;DHT22;16639;51.488;0.152;2024-03-02T11:08:18;9.10;99.90
29731;DHT22;16639;51.488;0.152;2024-03-02T11:10:51;7.50;99.90
29731;DHT22;16639;51.488;0.152;2024-03-02T11:13:27;7.50;99.90
29731;DHT22;16639;51.488;0.152;2024-03-02T11:16:12;7.50;99.90
29731;DHT22;16639;51.488;0.152;2024-03-02T11:18:42;7.50;99.90
29731;DHT22;16639;51.488;0.152;2024-03-02T11:21:10;7.70;99.90
29731;DHT22;16639;51.488;0.152;2024-03-02T11:23:37;7.50;99.90
29731;DHT22;16639;51.488;0.152;2024-03-02T11:26:17;7.50;99.90
29731;DHT22;16639;51.488;0.152;2024-03-02T11:28:46;7.50;99.90
29731;DHT22;16639;51.488;0.152;2024-03-02T11:31:17;7.50;99.90
29731;DHT22;16639;51.488;0.152;2024-03-02T11:33:46;7.50;99.90
29731;DHT22;16639;51.488;0.152;2024-03-02T11:36:13;7.60;99.90
29731;DHT22;16639;51.488;0.152;2024-03-02T11:38:43;7.40;99.90
29731;DHT22;16639;51.488;0.152;2024-03-02T11:41:14;8.40;99.90
29731;DHT22;16639;51.488;0.152;2024-03-02T11:43:42;7.30;99.90
29731;DHT22;16639;51.488;0.152;2024-03-02T11:46:11;7.30;99.90
29731;DHT22;16639;51.488;0.152;2024-03-02T11:48:40;7.30;99.90
29731;DHT22;16639;51.488;0.152;2024-03-02T11:51:08;7.30;99.90
29731;DHT22;16639;51.488;0.152;2024-03-02T11:53:38;7.30;99.90
29731;DHT22;16639;51.488;0.152;2024-03-02T11:56:06;7.20;99.90
29731;DHT22;16639;51.488;0.152;2024-03-02T11:58:37;7.20;99.90
29731;DHT22;16639;51.488;0.152;2024-03-02T12:01:06;7.20;99.90
29731;DHT22;16639;51.488;0.152;2024-03-02T12:03:34;7.20;99.90
29731;DHT22;16639;51.488;0.152;2024-03-02T12:06:02;7.10;99.90
29731;DHT22;16639;51.488;0.152;2024-03-02T12:08:30;7.20;99.90
29731;DHT22;16639;51.488;0.152;2024-03-02T12:11:01;7.10;99.90
29731;DHT22;16639;51.488;0.152;2024-03-02T12:13:30;7.20;99.90
29731;DHT22;16639;51.488;0.152;2024-03-02T12:15:59;7.20;99.90
29731;DHT22;16639;51.488;0.152;2024-03-02T12:18:27;7.20;99.90
29731;DHT22;16639;51.488;0.152;2024-03-02T12:20:54;7.20;99.90
29731;DHT22;16639;51.488;0.152;2024-03-02T12:23:26;7.20;99.90
29731;DHT22;16639;51.488;0.152;2024-03-02T12:25:54;7.20;99.90
29731;DHT22;16639;51.488;0.152;2024-03-02T12:28:22;7.30;99.90
29731;DHT22;16639;51.488;0.152;2024-03-02T12:30:49;7.40;99.90
29731;DHT22;16639;51.488;0.152;2024-03-02T12:33:17;7.60;99.90
29731;DHT22;16639;51.488;0.152;2024-03-02T12:35:45;7.40;99.90
29731;DHT22;16639;51.488;0.152;2024-03-02T12:38:12;7.50;99.90
29731;DHT22;16639;51.488;0.152;2024-03-02T12:40:41;7.40;99.90
29731;DHT22;16639;51.488;0.152;2024-03-02T12:43:09;7.50;99.90
29731;DHT22;16639;51.488;0.152;2024-03-02T12:45:36;7.50;99.90
29731;DHT22;16639;51.488;0.152;2024-03-02T12:48:05;7.80;99.90
29731;DHT22;16639;51.488;0.152;2024-03-02T12:50:35;7.60;99.90
29731;DHT22;16639;51.488;0.152;2024-03-02T12:53:03;7.60;99.90
29731;DHT22;16639;51.488;0.152;2024-03-02T12:55:30;7.60;99.90
29731;DHT22;16639;51.488;0.152;2024-03-02T12:57:58;7.80;99.90
29731;DHT22;16639;51.488;0.152;2024-03-02T13:00:28;7.80;99.90
29731;DHT22;16639;51.488;0.152;2024-03-02T13:02:57;7.80;99.90
29731;DHT22;16639;51.488;0.152;2024-03-02T13:05:30;7.80;99.90
29731;DHT22;16639;51.488;0.152;2024-03-02T13:07:59;7.80;99.90
29731;DHT22;16639;51.488;0.152;2024-03-02T13:10:29;7.90;99.90
29731;DHT22;16639;51.488;0.152;2024-03-02T13:12:57;7.90;99.90
29731;DHT22;16639;51.488;0.152;2024-03-02T13:15:27;8.00;99.90
29731;DHT22;16639;51.488;0.152;2024-03-02T13:17:59;8.10;99.90
29731;DHT22;16639;51.488;0.152;2024-03-02T13:20:31;8.40;99.90
29731;DHT22;16639;51.488;0.152;2024-03-02T13:23:02;8.00;99.90
29731;DHT22;16639;51.488;0.152;2024-03-02T13:25:30;8.10;99.90
29731;DHT22;16639;51.488;0.152;2024-03-02T13:27:59;8.10;99.90
29731;DHT22;16639;51.488;0.152;2024-03-02T13:30:28;8.10;99.90
29731;DHT22;16639;51.488;0.152;2024-03-02T13:32:55;8.10;99.90
29731;DHT22;16639;51.488;0.152;2024-03-02T13:35:23;8.00;99.90
29731;DHT22;16639;51.488;0.152;2024-03-02T13:37:50;8.20;99.90
29731;DHT22;16639;51.488;0.152;2024-03-02T13:40:18;7.90;99.90
29731;DHT22;16639;51.488;0.152;2024-03-02T13:42:48;7.90;99.90
29731;DHT22;16639;51.488;0.152;2024-03-02T13:45:16;7.90;99.90
29731;DHT22;16639;51.488;0.152;2024-03-02T13:47:45;8.00;99.90
29731;DHT22;16639;51.488;0.152;2024-03-02T13:50:12;8.10;99.90
29731;DHT22;16639;51.488;0.152;2024-03-02T13:52:40;8.20;99.90
29731;DHT22;16639;51.488;0.152;2024-03-02T13:55:08;8.20;99.90
29731;DHT22;16639;51.488;0.152;2024-03-02T13:57:36;8.10;99.90
29731;DHT22;16639;51.488;0.152;2024-03-02T14:00:04;8.20;99.90
29731;DHT22;16639;51.488;0.152;2024-03-02T14:02:38;8.10;99.90
29731;DHT22;16639;51.488;0.152;2024-03-02T14:05:06;8.00;99.90
29731;DHT22;16639;51.488;0.152;2024-03-02T14:07:38;7.10;99.90
29731;DHT22;16639;51.488;0.152;2024-03-02T14:10:06;8.10;99.90
29731;DHT22;16639;51.488;0.152;2024-03-02T14:12:34;8.10;99.90
29731;DHT22;16639;51.488;0.152;2024-03-02T14:15:04;7.70;99.90
29731;DHT22;16639;51.488;0.152;2024-03-02T14:17:32;8.10;99.90
29731;DHT22;16639;51.488;0.152;2024-03-02T14:20:00;8.10;99.90
29731;DHT22;16639;51.488;0.152;2024-03-02T14:22:27;8.10;99.90
29731;DHT22;16639;51.488;0.152;2024-03-02T14:24:57;8.10;99.90
29731;DHT22;16639;51.488;0.152;2024-03-02T14:27:25;8.10;99.90
29731;DHT22;16639;51.488;0.152;2024-03-02T14:30:13;8.10;99.90
29731;DHT22;16639;51.488;0.152;2024-03-02T14:32:40;8.20;99.90
29731;DHT22;16639;51.488;0.152;2024-03-02T14:35:08;8.10;99.90
29731;DHT22;16639;51.488;0.152;2024-03-02T14:37:39;8.10;99.90
29731;DHT22;16639;51.488;0.152;2024-03-02T14:40:07;8.30;99.90
29731;DHT22;16639;51.488;0.152;2024-03-02T14:42:37;8.30;99.90
29731;DHT22;16639;51.488;0.152;2024-03-02T14:45:04;8.40;99.90
29731;DHT22;16639;51.488;0.152;2024-03-02T14:47:32;8.40;99.90
29731;DHT22;16639;51.488;0.152;2024-03-02T14:50:01;8.30;99.90
29731;DHT22;16639;51.488;0.152;2024-03-02T14:52:33;8.40;99.90
29731;DHT22;16639;51.488;0.152;2024-03-02T14:55:01;8.30;99.90
29731;DHT22;16639;51.488;0.152;2024-03-02T14:57:31;8.30;99.90
29731;DHT22;16639;51.488;0.152;2024-03-02T14:59:58;8.30;99.90
29731;DHT22;16639;51.488;0.152;2024-03-02T15:02:29;8.30;99.90
29731;DHT22;16639;51.488;0.152;2024-03-02T15:05:00;8.30;99.90
29731;DHT22;16639;51.488;0.152;2024-03-02T15:07:28;8.30;99.90
29731;DHT22;16639;51.488;0.152;2024-03-02T15:09:55;8.30;99.90
29731;DHT22;16639;51.488;0.152;2024-03-02T15:12:23;8.30;99.90
29731;DHT22;16639;51.488;0.152;2024-03-02T15:14:51;8.30;99.90
29731;DHT22;16639;51.488;0.152;2024-03-02T15:17:18;8.30;99.90
29731;DHT22;16639;51.488;0.152;2024-03-02T15:19:48;8.20;99.90
29731;DHT22;16639;51.488;0.152;2024-03-02T15:22:16;8.80;99.90
29731;DHT22;16639;51.488;0.152;2024-03-02T15:24:44;8.20;99.90
29731;DHT22;16639;51.488;0.152;2024-03-02T15:27:12;8.30;99.90
29731;DHT22;16639;51.488;0.152;2024-03-02T15:29:41;8.30;99.90
29731;DHT22;16639;51.488;0.152;2024-03-02T15:32:08;8.30;99.90
29731;DHT22;16639;51.488;0.152;2024-03-02T15:34:36;8.20;99.90
29731;DHT22;16639;51.488;0.152;2024-03-02T15:37:03;8.20;99.90
29731;DHT22;16639;51.488;0.152;2024-03-02T15:39:31;8.20;99.90
29731;DHT22;16639;51.488;0.152;2024-03-02T15:42:00;8.10;99.90
29731;DHT22;16639;51.488;0.152;2024-03-02T15:44:28;8.00;99.90
29731;DHT22;16639;51.488;0.152;2024-03-02T15:46:56;8.00;99.90
29731;DHT22;16639;51.488;0.152;2024-03-02T15:49:24;8.10;99.90
29731;DHT22;16639;51.488;0.152;2024-03-02T15:51:51;8.10;99.90
29731;DHT22;16639;51.488;0.152;2024-03-02T15:54:19;8.10;99.90
29731;DHT22;16639;51.488;0.152;2024-03-02T15:56:50;8.10;99.90